Time,TemperatureF,DewpointF,PressureIn,WindDirection,WindDirectionDegrees,WindSpeedMPH,WindSpeedGustMPH,Humidity,HourlyPrecipIn,Conditions,Clouds,dailyrainin,SolarRadiationWatts/m^2,SoftwareType,DateUTC
2013-04-04 00:03:00,27.0,8.0,-100.00,North,5,6.0,17.0,44,0.00,,,0.00,0.000000,,2013-04-04 04:03:00,
2013-04-04 00:34:00,26.0,8.0,-100.00,North,1,8.0,19.0,45,0.00,,,0.00,0.000000,,2013-04-04 04:34:00,
2013-04-04 00:43:00,26.0,8.0,-100.00,North,1,8.0,19.0,45,0.00,,,0.00,0.000000,,2013-04-04 04:43:00,
2013-04-04 00:53:00,26.0,8.0,-100.00,North,1,8.0,19.0,45,0.00,,,0.00,0.000000,,2013-04-04 04:53:00,
2013-04-04 01:02:00,26.0,8.0,-100.00,North,1,8.0,19.0,45,0.00,,,0.00,0.000000,,2013-04-04 05:02:00,
2013-04-04 01:32:00,25.0,9.0,-100.00,North,359,7.0,14.0,50,0.00,,,0.00,0.000000,,2013-04-04 05:32:00,
2013-04-04 01:42:00,25.0,9.0,-100.00,North,359,7.0,14.0,50,0.00,,,0.00,0.000000,,2013-04-04 05:42:00,
2013-04-04 01:53:00,25.0,9.0,-100.00,North,359,7.0,14.0,50,0.00,,,0.00,0.000000,,2013-04-04 05:53:00,
2013-04-04 02:03:00,25.0,9.0,-100.00,North,359,7.0,14.0,50,0.00,,,0.00,0.000000,,2013-04-04 06:03:00,
2013-04-04 02:33:00,23.0,8.0,-100.00,North,7,3.0,11.0,53,0.00,,,0.00,0.000000,,2013-04-04 06:33:00,
2013-04-04 02:43:00,23.0,8.0,-100.00,North,7,3.0,11.0,53,0.00,,,0.00,0.000000,,2013-04-04 06:43:00,
2013-04-04 02:53:00,23.0,8.0,-100.00,North,7,3.0,11.0,53,0.00,,,0.00,0.000000,,2013-04-04 06:53:00,
2013-04-04 03:02:00,23.0,8.0,-100.00,North,7,3.0,11.0,53,0.00,,,0.00,0.000000,,2013-04-04 07:02:00,
2013-04-04 03:32:00,23.0,10.0,-100.00,NNE,29,3.0,6.0,56,0.00,,,0.00,0.000000,,2013-04-04 07:32:00,
2013-04-04 03:43:00,23.0,10.0,-100.00,NNE,29,3.0,6.0,56,0.00,,,0.00,0.000000,,2013-04-04 07:43:00,
2013-04-04 03:53:00,23.0,10.0,-100.00,NNE,29,3.0,6.0,56,0.00,,,0.00,0.000000,,2013-04-04 07:53:00,
2013-04-04 04:03:00,23.0,10.0,-100.00,NNE,29,3.0,6.0,56,0.00,,,0.00,0.000000,,2013-04-04 08:03:00,
2013-04-04 04:32:00,22.0,9.0,-100.00,NNE,16,3.0,5.0,57,0.00,,,0.00,0.000000,,2013-04-04 08:32:00,
2013-04-04 04:44:00,22.0,9.0,-100.00,NNE,16,3.0,5.0,57,0.00,,,0.00,0.000000,,2013-04-04 08:44:00,
2013-04-04 04:53:00,22.0,9.0,-100.00,NNE,16,3.0,5.0,57,0.00,,,0.00,0.000000,,2013-04-04 08:53:00,
2013-04-04 05:03:00,22.0,9.0,-100.00,NNE,16,3.0,5.0,57,0.00,,,0.00,0.000000,,2013-04-04 09:03:00,
2013-04-04 05:34:00,21.0,9.0,-100.00,SW,234,3.0,7.0,59,0.00,,,0.00,0.000000,,2013-04-04 09:34:00,
2013-04-04 05:44:00,21.0,9.0,-100.00,SW,234,3.0,7.0,59,0.00,,,0.00,0.000000,,2013-04-04 09:44:00,
2013-04-04 05:54:00,21.0,9.0,-100.00,SW,234,3.0,7.0,59,0.00,,,0.00,0.000000,,2013-04-04 09:54:00,
2013-04-04 06:04:00,21.0,9.0,-100.00,SW,234,3.0,7.0,59,0.00,,,0.00,0.000000,,2013-04-04 10:04:00,
2013-04-04 06:34:00,22.0,10.0,-100.00,NNE,17,3.0,9.0,59,0.00,,,0.00,0.000000,,2013-04-04 10:34:00,
2013-04-04 06:43:00,22.0,10.0,-100.00,NNE,17,3.0,9.0,59,0.00,,,0.00,0.000000,,2013-04-04 10:43:00,
2013-04-04 06:54:00,22.0,10.0,-100.00,NNE,17,3.0,9.0,59,0.00,,,0.00,0.000000,,2013-04-04 10:54:00,
2013-04-04 07:03:00,22.0,10.0,-100.00,NNE,17,3.0,9.0,59,0.00,,,0.00,0.000000,,2013-04-04 11:03:00,
2013-04-04 07:33:00,21.0,9.0,-100.00,North,9,3.0,5.0,60,0.00,,,0.00,5.000000,,2013-04-04 11:33:00,
2013-04-04 07:43:00,21.0,9.0,-100.00,North,9,3.0,5.0,60,0.00,,,0.00,5.000000,,2013-04-04 11:43:00,
2013-04-04 07:55:00,21.0,9.0,-100.00,North,9,3.0,5.0,60,0.00,,,0.00,5.000000,,2013-04-04 11:55:00,
2013-04-04 08:03:00,21.0,9.0,-100.00,North,9,3.0,5.0,60,0.00,,,0.00,5.000000,,2013-04-04 12:03:00,
2013-04-04 08:33:00,27.0,15.0,-100.00,North,350,3.0,6.0,60,0.00,,,0.00,111.000000,,2013-04-04 12:33:00,
2013-04-04 08:44:00,27.0,15.0,-100.00,North,350,3.0,6.0,60,0.00,,,0.00,111.000000,,2013-04-04 12:44:00,
2013-04-04 08:53:00,27.0,15.0,-100.00,North,350,3.0,6.0,60,0.00,,,0.00,111.000000,,2013-04-04 12:53:00,
2013-04-04 09:03:00,27.0,15.0,-100.00,North,350,3.0,6.0,60,0.00,,,0.00,111.000000,,2013-04-04 13:03:00,
2013-04-04 09:33:00,30.0,12.0,-100.00,NNW,334,3.0,5.0,46,0.00,,,0.00,326.000000,,2013-04-04 13:33:00,
2013-04-04 09:43:00,30.0,12.0,-100.00,NNW,334,3.0,5.0,46,0.00,,,0.00,326.000000,,2013-04-04 13:43:00,
2013-04-04 09:53:00,30.0,12.0,-100.00,NNW,334,3.0,5.0,46,0.00,,,0.00,326.000000,,2013-04-04 13:53:00,
2013-04-04 10:03:00,30.0,12.0,-100.00,NNW,334,3.0,5.0,46,0.00,,,0.00,326.000000,,2013-04-04 14:03:00,
2013-04-04 10:33:00,35.0,13.0,-100.00,East,96,3.0,10.0,40,0.00,,,0.00,447.000000,,2013-04-04 14:33:00,
2013-04-04 10:43:00,35.0,13.0,-100.00,East,96,3.0,10.0,40,0.00,,,0.00,447.000000,,2013-04-04 14:43:00,
2013-04-04 10:53:00,35.0,13.0,-100.00,East,96,3.0,10.0,40,0.00,,,0.00,447.000000,,2013-04-04 14:53:00,
2013-04-04 11:03:00,35.0,13.0,-100.00,East,96,3.0,10.0,40,0.00,,,0.00,447.000000,,2013-04-04 15:03:00,
2013-04-04 11:34:00,37.0,14.0,-100.00,SSW,208,6.0,11.0,39,0.00,,,0.00,554.000000,,2013-04-04 15:34:00,
2013-04-04 11:43:00,37.0,14.0,-100.00,SSW,208,6.0,11.0,39,0.00,,,0.00,554.000000,,2013-04-04 15:43:00,
2013-04-04 11:54:00,37.0,14.0,-100.00,SSW,208,6.0,11.0,39,0.00,,,0.00,554.000000,,2013-04-04 15:54:00,
2013-04-04 12:03:00,37.0,14.0,-100.00,SSW,208,6.0,11.0,39,0.00,,,0.00,554.000000,,2013-04-04 16:03:00,
2013-04-04 12:33:00,39.0,13.0,-100.00,South,188,7.0,12.0,34,0.00,,,0.00,657.000000,,2013-04-04 16:33:00,
2013-04-04 12:43:00,39.0,13.0,-100.00,South,188,7.0,12.0,34,0.00,,,0.00,657.000000,,2013-04-04 16:43:00,
2013-04-04 12:55:00,39.0,13.0,-100.00,South,188,7.0,12.0,34,0.00,,,0.00,657.000000,,2013-04-04 16:55:00,
2013-04-04 13:03:00,39.0,13.0,-100.00,South,188,7.0,12.0,34,0.00,,,0.00,657.000000,,2013-04-04 17:03:00,
2013-04-04 13:33:00,42.0,14.0,-100.00,South,187,8.0,15.0,31,0.00,,,0.00,774.000000,,2013-04-04 17:33:00,
2013-04-04 13:43:00,42.0,14.0,-100.00,South,187,8.0,15.0,31,0.00,,,0.00,774.000000,,2013-04-04 17:43:00,
2013-04-04 13:53:00,42.0,14.0,-100.00,South,187,8.0,15.0,31,0.00,,,0.00,774.000000,,2013-04-04 17:53:00,
2013-04-04 14:02:00,42.0,14.0,-100.00,South,187,8.0,15.0,31,0.00,,,0.00,774.000000,,2013-04-04 18:02:00,
2013-04-04 14:33:00,45.0,14.0,-100.00,SSW,198,9.0,18.0,28,0.00,,,0.00,767.000000,,2013-04-04 18:33:00,
2013-04-04 14:43:00,45.0,14.0,-100.00,SSW,198,9.0,18.0,28,0.00,,,0.00,767.000000,,2013-04-04 18:43:00,
2013-04-04 14:53:00,45.0,14.0,-100.00,SSW,198,9.0,18.0,28,0.00,,,0.00,767.000000,,2013-04-04 18:53:00,
2013-04-04 15:02:00,45.0,14.0,-100.00,SSW,198,9.0,18.0,28,0.00,,,0.00,767.000000,,2013-04-04 19:02:00,
2013-04-04 15:33:00,46.0,12.0,-100.00,SSW,205,9.0,15.0,25,0.00,,,0.00,730.000000,,2013-04-04 19:33:00,
2013-04-04 15:43:00,46.0,12.0,-100.00,SSW,205,9.0,15.0,25,0.00,,,0.00,730.000000,,2013-04-04 19:43:00,
2013-04-04 15:53:00,46.0,12.0,-100.00,SSW,205,9.0,15.0,25,0.00,,,0.00,730.000000,,2013-04-04 19:53:00,
2013-04-04 16:04:00,46.0,12.0,-100.00,SSW,205,9.0,15.0,25,0.00,,,0.00,730.000000,,2013-04-04 20:04:00,
2013-04-04 16:33:00,45.0,11.0,-100.00,SSW,205,10.0,16.0,25,0.00,,,0.00,518.000000,,2013-04-04 20:33:00,
2013-04-04 16:42:00,45.0,11.0,-100.00,SSW,205,10.0,16.0,25,0.00,,,0.00,518.000000,,2013-04-04 20:42:00,
2013-04-04 16:53:00,45.0,11.0,-100.00,SSW,205,10.0,16.0,25,0.00,,,0.00,518.000000,,2013-04-04 20:53:00,
2013-04-04 17:02:00,45.0,11.0,-100.00,SSW,205,10.0,16.0,25,0.00,,,0.00,518.000000,,2013-04-04 21:02:00,
2013-04-04 17:33:00,44.0,10.0,-100.00,SSW,204,9.0,15.0,24,0.00,,,0.00,344.000000,,2013-04-04 21:33:00,
2013-04-04 17:43:00,44.0,10.0,-100.00,SSW,204,9.0,15.0,24,0.00,,,0.00,344.000000,,2013-04-04 21:43:00,
2013-04-04 17:53:00,44.0,10.0,-100.00,SSW,204,9.0,15.0,24,0.00,,,0.00,344.000000,,2013-04-04 21:53:00,
2013-04-04 18:04:00,44.0,10.0,-100.00,SSW,204,9.0,15.0,24,0.00,,,0.00,344.000000,,2013-04-04 22:04:00,
2013-04-04 18:34:00,43.0,12.0,-100.00,SSW,208,8.0,15.0,28,0.00,,,0.00,168.000000,,2013-04-04 22:34:00,
2013-04-04 18:43:00,43.0,12.0,-100.00,SSW,208,8.0,15.0,28,0.00,,,0.00,168.000000,,2013-04-04 22:43:00,
2013-04-04 18:53:00,43.0,12.0,-100.00,SSW,208,8.0,15.0,28,0.00,,,0.00,168.000000,,2013-04-04 22:53:00,
2013-04-04 19:03:00,43.0,12.0,-100.00,SSW,208,8.0,15.0,28,0.00,,,0.00,168.000000,,2013-04-04 23:03:00,
2013-04-04 19:32:00,41.0,12.0,-100.00,SW,225,7.0,16.0,30,0.00,,,0.00,57.000000,,2013-04-04 23:32:00,
2013-04-04 19:43:00,41.0,12.0,-100.00,SW,225,7.0,16.0,30,0.00,,,0.00,57.000000,,2013-04-04 23:43:00,
2013-04-04 19:53:00,41.0,12.0,-100.00,SW,225,7.0,16.0,30,0.00,,,0.00,57.000000,,2013-04-04 23:53:00,
2013-04-04 20:02:00,41.0,12.0,-100.00,SW,225,7.0,16.0,30,0.00,,,0.00,57.000000,,2013-04-05 00:02:00,
2013-04-04 20:33:00,39.0,11.0,-100.00,SW,219,7.0,14.0,31,0.00,,,0.00,4.000000,,2013-04-05 00:33:00,
2013-04-04 20:43:00,39.0,11.0,-100.00,SW,219,7.0,14.0,31,0.00,,,0.00,4.000000,,2013-04-05 00:43:00,
2013-04-04 20:52:00,39.0,11.0,-100.00,SW,219,7.0,14.0,31,0.00,,,0.00,4.000000,,2013-04-05 00:52:00,
2013-04-04 21:02:00,39.0,11.0,-100.00,SW,219,7.0,14.0,31,0.00,,,0.00,4.000000,,2013-04-05 01:02:00,
2013-04-04 21:32:00,38.0,10.0,-100.00,SW,223,7.0,12.0,31,0.00,,,0.00,0.000000,,2013-04-05 01:32:00,
2013-04-04 21:42:00,38.0,10.0,-100.00,SW,223,7.0,12.0,31,0.00,,,0.00,0.000000,,2013-04-05 01:42:00,
2013-04-04 21:54:00,38.0,10.0,-100.00,SW,223,7.0,12.0,31,0.00,,,0.00,0.000000,,2013-04-05 01:54:00,
2013-04-04 22:03:00,38.0,10.0,-100.00,SW,223,7.0,12.0,31,0.00,,,0.00,0.000000,,2013-04-05 02:03:00,
2013-04-04 22:32:00,36.0,10.0,-100.00,South,181,7.0,13.0,34,0.00,,,0.00,0.000000,,2013-04-05 02:32:00,
2013-04-04 22:42:00,36.0,10.0,-100.00,South,181,7.0,13.0,34,0.00,,,0.00,0.000000,,2013-04-05 02:42:00,
2013-04-04 22:52:00,36.0,10.0,-100.00,South,181,7.0,13.0,34,0.00,,,0.00,0.000000,,2013-04-05 02:52:00,
2013-04-04 23:02:00,36.0,10.0,-100.00,South,181,7.0,13.0,34,0.00,,,0.00,0.000000,,2013-04-05 03:02:00,
2013-04-04 23:33:00,35.0,14.0,-100.00,SSW,195,8.0,12.0,41,0.00,,,0.00,0.000000,,2013-04-05 03:33:00,
2013-04-04 23:43:00,35.0,14.0,-100.00,SSW,195,8.0,12.0,41,0.00,,,0.00,0.000000,,2013-04-05 03:43:00,
2013-04-04 23:55:00,35.0,14.0,-100.00,SSW,195,8.0,12.0,41,0.00,,,0.00,0.000000,,2013-04-05 03:55:00,